Time;durP1;ratioP1;P1;durP2;ratioP2;P2;SDS_P1;SDS_P2;PMS_P1;PMS_P2;Temp;Humidity;BMP_temperature;BMP_pressure;BME280_temperature;BME280_humidity;BME280_pressure;Samples;Min_cycle;Max_cycle;Signal;HPM_P1;HPM_P2
2022/03/04 00:01:09;;;;;;;21.42;12.52;;;;;;;2.19;64.32;102096.66;5045431;28;20029;-57
2022/03/04 00:03:34;;;;;;;26.50;12.00;;;;;;;2.17;64.13;102091.44;5047563;28;20046;-57
2022/03/04 00:06:00;;;;;;;19.60;11.02;;;;;;;2.18;64.46;102088.00;5047499;28;20070;-57
2022/03/04 00:08:25;;;;;;;19.77;11.68;;;;;;;2.16;64.57;102094.88;5045230;28;20510;-57
2022/03/04 00:10:50;;;;;;;21.33;11.35;;;;;;;2.13;64.44;102097.41;5046016;28;20049;-58
2022/03/04 00:13:16;;;;;;;19.27;11.25;;;;;;;2.11;64.52;102094.75;5045453;28;20706;-59
2022/03/04 00:15:41;;;;;;;19.52;12.18;;;;;;;2.08;64.82;102099.03;5046151;28;20105;-57
2022/03/04 00:18:06;;;;;;;25.58;12.40;;;;;;;2.07;65.06;102103.34;5046593;28;20452;-58
2022/03/04 00:20:33;;;;;;;20.02;11.63;;;;;;;2.00;65.17;102091.94;5047202;28;20075;-60
2022/03/04 00:22:58;;;;;;;22.98;12.20;;;;;;;2.04;65.43;102099.81;5042764;28;20510;-58
2022/03/04 00:25:23;;;;;;;24.63;12.38;;;;;;;1.94;65.24;102101.31;5045919;28;20057;-57
2022/03/04 00:27:49;;;;;;;21.58;12.52;;;;;;;1.89;65.58;102098.59;5045705;28;20056;-58
2022/03/04 00:30:14;;;;;;;21.55;12.98;;;;;;;1.87;65.99;102100.31;5046502;28;20123;-59
2022/03/04 00:32:40;;;;;;;19.35;11.85;;;;;;;1.76;66.13;102093.16;5046752;28;20028;-59
2022/03/04 00:35:06;;;;;;;21.02;11.95;;;;;;;1.75;66.14;102100.91;5052589;28;20027;-59
2022/03/04 00:37:32;;;;;;;21.98;12.20;;;;;;;1.75;66.21;102100.91;5066098;28;20499;-58
2022/03/04 00:39:57;;;;;;;20.30;12.57;;;;;;;1.67;66.57;102102.44;5065357;28;20036;-58
2022/03/04 00:42:22;;;;;;;20.90;12.18;;;;;;;1.60;66.71;102104.03;5065197;28;20031;-58
2022/03/04 00:44:47;;;;;;;25.58;12.90;;;;;;;1.58;67.02;102105.69;5066138;28;20028;-58
2022/03/04 00:47:13;;;;;;;21.95;12.85;;;;;;;1.55;66.92;102108.22;5066460;28;20024;-58
2022/03/04 00:49:39;;;;;;;20.45;12.20;;;;;;;1.50;67.31;102111.59;5044361;28;20033;-58
2022/03/04 00:52:04;;;;;;;20.80;12.68;;;;;;;1.49;67.67;102119.34;5045794;28;20414;-54
2022/03/04 00:54:30;;;;;;;22.63;12.80;;;;;;;1.46;67.73;102107.16;5027355;28;20037;-58
2022/03/04 00:56:55;;;;;;;26.77;12.77;;;;;;;1.41;68.19;102110.50;5045058;28;20135;-56
2022/03/04 00:59:20;;;;;;;20.77;12.05;;;;;;;1.39;68.48;102113.91;5045653;28;20391;-58
2022/03/04 01:01:46;;;;;;;24.83;12.00;;;;;;;1.40;68.24;102120.00;5045820;28;20039;-56
2022/03/04 01:04:11;;;;;;;21.40;12.55;;;;;;;1.43;68.28;102114.88;5045823;28;20087;-57
2022/03/04 01:06:38;;;;;;;22.20;13.07;;;;;;;1.53;68.22;102112.53;5044749;28;20094;-58
2022/03/04 01:09:04;;;;;;;23.27;13.20;;;;;;;1.56;67.96;102113.44;5045823;28;20475;-58
2022/03/04 01:11:29;;;;;;;22.88;12.82;;;;;;;1.58;67.95;102110.91;5044190;28;20136;-57
2022/03/04 01:13:54;;;;;;;20.13;12.85;;;;;;;1.61;67.79;102105.78;5046023;28;20036;-56
2022/03/04 01:16:20;;;;;;;18.80;12.23;;;;;;;1.57;67.79;102107.44;5044419;28;20353;-58
2022/03/04 01:18:45;;;;;;;24.05;14.10;;;;;;;1.62;67.33;102112.72;5045646;28;20035;-56
2022/03/04 01:21:10;;;;;;;23.88;12.70;;;;;;;1.63;67.35;102112.75;5045317;28;20031;-57
2022/03/04 01:23:36;;;;;;;21.88;12.85;;;;;;;1.64;67.63;102109.34;5045606;28;20128;-57
2022/03/04 01:26:01;;;;;;;21.50;12.85;;;;;;;1.66;67.47;102114.56;5045487;28;20111;-57
2022/03/04 01:28:27;;;;;;;24.35;12.93;;;;;;;1.69;67.98;102118.94;5044323;28;20121;-57
2022/03/04 01:30:53;;;;;;;23.50;13.13;;;;;;;1.63;68.09;102104.09;5045333;28;20076;-56
2022/03/04 01:33:18;;;;;;;22.85;13.07;;;;;;;1.62;68.25;102113.59;5045782;28;20025;-57
2022/03/04 01:35:44;;;;;;;24.20;13.95;;;;;;;1.61;68.10;102113.56;5044703;28;20074;-57
2022/03/04 01:38:09;;;;;;;25.83;14.25;;;;;;;1.56;68.63;102115.19;5044911;28;20029;-58
2022/03/04 01:40:35;;;;;;;24.83;13.85;;;;;;;1.56;68.88;102115.19;5045028;28;20029;-57
2022/03/04 01:43:00;;;;;;;25.05;13.32;;;;;;;1.55;68.74;102116.00;5044127;28;20025;-60
2022/03/04 01:45:26;;;;;;;27.08;13.65;;;;;;;1.53;68.81;102110.78;5045129;28;20040;-59
2022/03/04 01:47:51;;;;;;;27.98;13.20;;;;;;;1.45;68.92;102104.53;5044430;28;20128;-57
2022/03/04 01:50:17;;;;;;;23.45;12.85;;;;;;;1.44;68.94;102111.44;5043923;28;20021;-57
2022/03/04 01:52:42;;;;;;;25.92;14.40;;;;;;;1.34;69.20;102112.03;5045637;28;20025;-58
2022/03/04 01:55:08;;;;;;;24.75;13.23;;;;;;;1.29;69.40;102095.50;5044181;28;20048;-59
2022/03/04 01:57:35;;;;;;;23.30;14.25;;;;;;;1.26;69.63;102104.94;5044010;28;20024;-58
2022/03/04 02:00:01;;;;;;;24.30;13.07;;;;;;;1.23;70.08;102102.25;5044262;28;20029;-59
2022/03/04 02:02:26;;;;;;;25.85;13.55;;;;;;;1.24;70.07;102113.53;5043852;28;21064;-58
2022/03/04 02:04:51;;;;;;;25.98;14.38;;;;;;;1.22;70.28;102108.31;5044172;28;20159;-58
2022/03/04 02:07:17;;;;;;;21.70;13.73;;;;;;;1.22;69.98;102100.53;5044590;28;20021;-58
2022/03/04 02:09:42;;;;;;;26.30;13.77;;;;;;;1.18;70.50;102096.09;5044596;28;20056;-57
2022/03/04 02:12:08;;;;;;;22.77;13.15;;;;;;;1.20;70.49;102101.31;5043796;28;20110;-60
2022/03/04 02:14:33;;;;;;;27.27;14.02;;;;;;;1.19;70.45;102103.03;5044726;28;20479;-57
2022/03/04 02:16:58;;;;;;;29.67;13.82;;;;;;;1.19;70.46;102096.94;5043832;28;20028;-56
2022/03/04 02:19:24;;;;;;;24.48;14.30;;;;;;;1.21;70.44;102101.34;5044374;28;20112;-56
2022/03/04 02:21:53;;;;;;;24.02;13.50;;;;;;;1.22;70.79;102100.53;5043962;28;20459;-57
2022/03/04 02:24:20;;;;;;;27.25;14.57;;;;;;;1.23;70.43;102099.66;5044437;28;20021;-58
2022/03/04 02:26:45;;;;;;;26.40;13.90;;;;;;;1.23;70.58;102099.66;5043113;28;20178;-56
2022/03/04 02:29:11;;;;;;;25.45;13.60;;;;;;;1.23;70.29;102098.78;5044223;28;20505;-58
2022/03/04 02:31:37;;;;;;;29.13;15.18;;;;;;;1.24;70.29;102104.00;5050849;28;20013;-59
2022/03/04 02:34:02;;;;;;;26.50;14.90;;;;;;;1.26;69.95;102096.25;5049542;28;20032;-59
2022/03/04 02:36:28;;;;;;;28.10;15.07;;;;;;;1.26;69.86;102086.75;5041815;28;20028;-56
2022/03/04 02:38:53;;;;;;;25.65;15.05;;;;;;;1.23;70.10;102093.59;5042534;28;20021;-58
2022/03/04 02:41:19;;;;;;;29.27;13.13;;;;;;;1.19;70.02;102090.06;5042791;28;20040;-57
2022/03/04 02:43:44;;;;;;;26.98;14.80;;;;;;;1.16;70.55;102086.47;5044664;28;20017;-59
2022/03/04 02:46:09;;;;;;;24.55;14.00;;;;;;;1.17;70.38;102083.06;5043664;28;20068;-57
2022/03/04 02:48:35;;;;;;;23.67;13.30;;;;;;;1.18;70.44;102074.44;5045088;28;20489;-60
2022/03/04 02:51:00;;;;;;;28.70;14.60;;;;;;;1.09;70.65;102088.06;5060200;28;20017;-58
2022/03/04 02:53:26;;;;;;;28.83;15.63;;;;;;;1.08;70.86;102089.78;5063957;28;20042;-57
2022/03/04 02:55:51;;;;;;;25.15;13.15;;;;;;;1.04;70.71;102095.72;5063384;28;20471;-57
2022/03/04 02:58:17;;;;;;;30.05;14.27;;;;;;;0.98;71.06;102095.56;5064586;28;20100;-58
2022/03/04 03:00:42;;;;;;;26.95;14.57;;;;;;;0.95;71.14;102088.59;5064799;28;20466;-58
2022/03/04 03:03:07;;;;;;;24.05;13.85;;;;;;;0.89;71.44;102085.81;5045142;28;20151;-59
2022/03/04 03:05:33;;;;;;;26.17;14.40;;;;;;;0.82;71.58;102079.59;5044092;28;20029;-57
2022/03/04 03:07:58;;;;;;;29.33;15.30;;;;;;;0.80;71.80;102080.38;5043599;28;20021;-59
2022/03/04 03:10:23;;;;;;;27.95;14.98;;;;;;;0.84;71.88;102080.50;5043353;28;20434;-57
2022/03/04 03:12:49;;;;;;;26.45;15.48;;;;;;;0.76;71.68;102069.06;5044288;28;20017;-58
2022/03/04 03:15:15;;;;;;;34.55;15.15;;;;;;;0.74;71.90;102075.91;5046762;28;20052;-57
2022/03/04 03:17:40;;;;;;;29.63;16.13;;;;;;;0.70;72.08;102080.16;5046076;28;20498;-56
2022/03/04 03:20:07;;;;;;;26.90;14.43;;;;;;;0.65;72.28;102081.72;5047742;28;20029;-57
2022/03/04 03:22:32;;;;;;;29.90;15.40;;;;;;;0.60;72.50;102083.31;5048547;28;20025;-52
2022/03/04 03:24:58;;;;;;;23.63;13.60;;;;;;;0.56;72.69;102087.53;5047005;28;20029;-54
2022/03/04 03:27:23;;;;;;;26.05;15.43;;;;;;;0.56;72.52;102086.66;5047110;28;20029;-55
2022/03/04 03:29:49;;;;;;;26.33;14.23;;;;;;;0.53;72.67;102084.84;5047843;28;20154;-58
2022/03/04 03:32:14;;;;;;;30.00;16.58;;;;;;;0.46;73.18;102086.41;5047536;28;20059;-58
2022/03/04 03:34:40;;;;;;;29.63;15.55;;;;;;;0.42;72.98;102084.53;5047868;28;20029;-58
2022/03/04 03:37:06;;;;;;;30.67;16.63;;;;;;;0.37;72.93;102086.13;5045731;28;20036;-59
2022/03/04 03:39:31;;;;;;;30.23;15.55;;;;;;;0.35;73.24;102078.31;5041548;28;20041;-61
2022/03/04 03:41:57;;;;;;;28.25;15.13;;;;;;;0.33;73.04;102079.97;5025128;28;20523;-57
2022/03/04 03:44:22;;;;;;;27.10;14.63;;;;;;;0.30;73.00;102081.63;5038329;28;20022;-57
2022/03/04 03:46:47;;;;;;;26.60;15.30;;;;;;;0.24;73.14;102083.19;5046568;28;20104;-58
2022/03/04 03:49:13;;;;;;;23.60;13.48;;;;;;;0.22;73.08;102086.56;5047427;28;20039;-56
2022/03/04 03:51:38;;;;;;;27.45;15.00;;;;;;;0.21;73.03;102082.22;5047720;28;21388;-59
2022/03/04 03:54:04;;;;;;;26.70;14.15;;;;;;;0.19;73.17;102087.38;5043598;28;20029;-56
2022/03/04 03:56:29;;;;;;;27.88;14.20;;;;;;;0.17;73.10;102086.44;5033807;28;20036;-57
2022/03/04 03:58:54;;;;;;;34.17;15.48;;;;;;;0.13;73.07;102079.41;5030048;28;20517;-56
2022/03/04 04:01:20;;;;;;;28.80;15.52;;;;;;;0.10;73.33;102082.78;5026968;28;20037;-60
2022/03/04 04:03:45;;;;;;;30.25;16.20;;;;;;;0.06;73.47;102087.84;5026161;28;20504;-58
2022/03/04 04:06:11;;;;;;;29.88;14.55;;;;;;;0.07;74.19;102092.19;5038499;28;20076;-58
2022/03/04 04:08:36;;;;;;;27.58;14.25;;;;;;;0.06;74.22;102091.28;5050600;28;20086;-57
2022/03/04 04:11:02;;;;;;;30.67;15.00;;;;;;;0.05;74.04;102104.19;5066685;28;20036;-58
2022/03/04 04:13:27;;;;;;;30.13;14.50;;;;;;;0.05;74.27;102094.72;5055332;28;20121;-58
2022/03/04 04:15:52;;;;;;;38.47;16.90;;;;;;;-0.02;74.81;102098.84;5039127;28;20229;-57
2022/03/04 04:18:18;;;;;;;29.23;15.55;;;;;;;-0.03;74.68;102106.59;5032748;28;20025;-57
2022/03/04 04:20:43;;;;;;;30.05;15.52;;;;;;;-0.08;74.87;102098.66;5029237;28;20033;-56
2022/03/04 04:23:08;;;;;;;28.17;15.45;;;;;;;-0.13;74.98;102106.28;5061118;28;20029;-56
2022/03/04 04:25:34;;;;;;;31.15;16.60;;;;;;;-0.14;75.31;102106.25;5066324;28;20031;-56
2022/03/04 04:27:59;;;;;;;28.35;15.15;;;;;;;-0.15;75.49;102112.25;5049211;28;20040;-56
2022/03/04 04:30:25;;;;;;;30.23;15.70;;;;;;;-0.20;75.57;102112.13;5045921;28;20556;-57
2022/03/04 04:32:50;;;;;;;31.30;14.88;;;;;;;-0.21;75.63;102112.94;5045974;28;20518;-55
2022/03/04 04:35:15;;;;;;;26.88;14.63;;;;;;;-0.24;75.87;102117.16;5046651;28;20083;-56
2022/03/04 04:37:40;;;;;;;29.60;16.05;;;;;;;-0.28;76.21;102117.06;5046503;28;20021;-58
2022/03/04 04:40:07;;;;;;;30.85;15.90;;;;;;;-0.21;75.92;102112.06;5045167;28;20028;-60
2022/03/04 04:42:32;;;;;;;33.30;15.88;;;;;;;-0.26;76.32;102111.91;5034166;28;20492;-57
2022/03/04 04:44:58;;;;;;;31.20;15.45;;;;;;;-0.26;76.24;102106.75;5044281;28;20051;-57
2022/03/04 04:47:23;;;;;;;31.60;16.90;;;;;;;-0.24;76.45;102109.38;5026199;28;20036;-56
2022/03/04 04:49:48;;;;;;;30.33;15.82;;;;;;;-0.22;76.28;102102.50;5035960;28;20582;-58
2022/03/04 04:52:14;;;;;;;33.35;16.42;;;;;;;-0.23;76.37;102098.19;5036999;28;20017;-57
2022/03/04 04:54:40;;;;;;;34.13;16.27;;;;;;;-0.24;76.39;102106.78;5045464;28;20032;-57
2022/03/04 04:57:05;;;;;;;30.85;16.45;;;;;;;-0.27;76.48;102103.25;5045844;28;20074;-56
2022/03/04 04:59:31;;;;;;;32.58;17.60;;;;;;;-0.27;76.70;102100.66;5024831;28;20424;-56
2022/03/04 05:01:56;;;;;;;30.75;16.27;;;;;;;-0.31;76.64;102091.03;5037506;28;20395;-56
2022/03/04 05:04:21;;;;;;;26.92;16.13;;;;;;;-0.33;76.84;102103.06;5028028;28;20534;-59
2022/03/04 05:06:47;;;;;;;30.45;17.05;;;;;;;-0.37;76.81;102106.38;5046277;28;20028;-57
2022/03/04 05:09:12;;;;;;;27.65;15.73;;;;;;;-0.42;76.82;102106.22;5045529;28;20075;-54
2022/03/04 05:11:37;;;;;;;34.55;16.02;;;;;;;-0.45;77.40;102103.53;5029218;28;20045;-58
2022/03/04 05:14:03;;;;;;;35.75;17.70;;;;;;;-0.48;77.19;102103.44;5040099;28;20037;-55
2022/03/04 05:16:28;;;;;;;30.48;15.88;;;;;;;-0.53;77.32;102116.28;5045202;28;20025;-58
2022/03/04 05:18:53;;;;;;;33.33;17.17;;;;;;;-0.56;77.69;102112.69;5044997;28;20036;-58
2022/03/04 05:21:19;;;;;;;29.67;16.50;;;;;;;-0.58;77.59;102111.75;5044476;28;20021;-58
2022/03/04 05:23:59;;;;;;;33.65;17.13;;;;;;;-0.53;78.10;102121.44;5045042;28;20063;-56
2022/03/04 05:26:36;;;;;;;30.48;15.48;;;;;;;-0.44;77.32;102114.78;5043300;28;20029;-59
2022/03/04 05:29:03;;;;;;;32.50;15.52;;;;;;;-0.45;77.25;102115.63;5047298;28;20060;-57
2022/03/04 05:31:29;;;;;;;33.08;16.83;;;;;;;-0.44;77.04;102114.78;5052989;28;20128;-58
2022/03/04 05:33:54;;;;;;;34.65;16.95;;;;;;;-0.40;77.16;102108.88;5055094;28;20483;-57
2022/03/04 05:36:20;;;;;;;33.60;16.85;;;;;;;-0.42;76.87;102118.31;5044661;28;20119;-58
2022/03/04 05:38:46;;;;;;;31.80;17.17;;;;;;;-0.43;77.18;102112.25;5025708;28;20068;-59
2022/03/04 05:41:12;;;;;;;33.00;16.70;;;;;;;-0.48;77.36;102110.34;5024904;28;20108;-56
2022/03/04 05:43:38;;;;;;;33.83;16.55;;;;;;;-0.46;77.35;102116.44;5041698;28;20063;-57
2022/03/04 05:46:04;;;;;;;33.55;17.75;;;;;;;-0.47;77.56;102117.28;5050336;28;20037;-57
2022/03/04 05:48:29;;;;;;;28.85;15.48;;;;;;;-0.44;77.41;102125.16;5044922;28;20059;-59
2022/03/04 05:50:54;;;;;;;32.00;16.88;;;;;;;-0.45;77.21;102132.03;5043122;28;20013;-56
2022/03/04 05:53:20;;;;;;;33.58;16.00;;;;;;;-0.46;77.48;102135.47;5056714;28;20320;-58
2022/03/04 05:55:45;;;;;;;35.25;16.80;;;;;;;-0.49;77.58;102134.50;5064698;28;20111;-57
2022/03/04 05:58:10;;;;;;;36.58;17.20;;;;;;;-0.52;77.79;102128.38;5063816;28;20024;-58
2022/03/04 06:00:36;;;;;;;32.85;16.40;;;;;;;-0.56;77.96;102138.56;5034506;28;20379;-56
2022/03/04 06:03:02;;;;;;;30.63;17.92;;;;;;;-0.54;78.24;102130.03;5031270;28;20383;-57
2022/03/04 06:05:27;;;;;;;36.15;18.13;;;;;;;-0.49;77.88;102134.50;5035626;28;20028;-58
2022/03/04 06:07:52;;;;;;;32.35;16.77;;;;;;;-0.41;77.79;102133.03;5034341;28;20479;-57
2022/03/04 06:10:18;;;;;;;35.60;17.83;;;;;;;-0.39;77.87;102139.16;5032609;28;20046;-58
2022/03/04 06:12:43;;;;;;;38.75;18.85;;;;;;;-0.40;77.66;102133.06;5027834;28;20033;-55
2022/03/04 06:15:09;;;;;;;34.22;17.13;;;;;;;-0.44;77.92;102130.34;5048252;28;20047;-59
2022/03/04 06:17:34;;;;;;;33.72;17.52;;;;;;;-0.45;78.05;102142.38;5046560;28;20032;-58
2022/03/04 06:19:59;;;;;;;32.53;16.63;;;;;;;-0.43;78.22;102139.84;5063119;28;20445;-57
2022/03/04 06:22:25;;;;;;;30.40;17.27;;;;;;;-0.36;77.66;102138.38;5063858;28;20040;-57
2022/03/04 06:24:50;;;;;;;36.53;17.92;;;;;;;-0.33;77.28;102136.72;5063850;28;20035;-57
2022/03/04 06:27:15;;;;;;;33.55;16.90;;;;;;;-0.33;77.23;102149.69;5056308;28;20478;-57
2022/03/04 06:29:41;;;;;;;31.10;17.17;;;;;;;-0.34;77.55;102145.34;5047654;28;20017;-55
2022/03/04 06:32:07;;;;;;;34.72;18.52;;;;;;;-0.28;77.86;102152.44;5036378;28;20397;-60
2022/03/04 06:34:32;;;;;;;39.03;17.67;;;;;;;-0.26;77.50;102145.59;5040735;28;20386;-57
2022/03/04 06:36:58;;;;;;;33.95;17.40;;;;;;;-0.22;77.44;102152.63;5043282;28;20171;-57
2022/03/04 06:39:23;;;;;;;36.00;17.38;;;;;;;-0.19;77.17;102146.66;5043155;28;20033;-55
2022/03/04 06:41:48;;;;;;;33.22;16.83;;;;;;;-0.16;77.03;102152.84;5059065;28;20176;-57
2022/03/04 06:44:14;;;;;;;29.30;16.42;;;;;;;-0.11;76.70;102154.69;5053688;28;20068;-57
2022/03/04 06:46:40;;;;;;;33.35;17.80;;;;;;;-0.11;76.86;102159.88;5045264;28;20021;-57
2022/03/04 06:49:10;;;;;;;33.08;17.83;;;;;;;-0.07;76.77;102166.91;5053466;28;20033;-57
2022/03/04 06:51:36;;;;;;;37.33;18.17;;;;;;;-0.05;76.79;102165.25;5051083;28;20107;-56
2022/03/04 06:54:01;;;;;;;36.42;17.65;;;;;;;-0.03;76.51;102169.63;5047366;28;20040;-54
2022/03/04 06:56:26;;;;;;;31.75;17.67;;;;;;;-0.03;76.61;102177.41;5048891;28;20045;-57
2022/03/04 06:58:52;;;;;;;30.80;18.25;;;;;;;-0.02;76.66;102173.13;5057396;28;20021;-56
2022/03/04 07:01:17;;;;;;;42.10;17.98;;;;;;;0.04;76.63;102177.63;5045926;28;20033;-54
2022/03/04 07:03:42;;;;;;;32.65;16.02;;;;;;;0.03;76.32;102176.72;5040383;28;20026;-56
2022/03/04 07:06:08;;;;;;;30.27;16.55;;;;;;;0.10;75.85;102175.22;5028683;28;20088;-55
2022/03/04 07:08:36;;;;;;;35.83;17.45;;;;;;;0.15;75.65;102186.59;5033252;28;20176;-57
2022/03/04 07:11:02;;;;;;;30.83;17.27;;;;;;;0.17;75.49;102187.53;5067403;28;20051;-57
2022/03/04 07:13:27;;;;;;;33.30;17.98;;;;;;;0.21;75.52;102188.53;5065258;28;20423;-59
2022/03/04 07:15:52;;;;;;;31.13;16.20;;;;;;;0.27;75.22;102193.00;5060228;28;20024;-57
2022/03/04 07:18:18;;;;;;;34.78;17.42;;;;;;;0.29;75.15;102196.50;5054682;28;20467;-58
2022/03/04 07:20:43;;;;;;;35.85;17.05;;;;;;;0.34;75.09;102193.25;5058390;28;20099;-55
2022/03/04 07:23:08;;;;;;;31.23;16.20;;;;;;;0.37;75.10;102198.50;5047549;28;20438;-54
2022/03/04 07:25:34;;;;;;;32.55;17.05;;;;;;;0.39;75.46;102197.69;5046624;28;20029;-56
2022/03/04 07:27:59;;;;;;;29.60;15.93;;;;;;;0.43;75.14;102192.66;5047737;28;20472;-61
2022/03/04 07:30:25;;;;;;;33.35;17.90;;;;;;;0.46;75.20;102194.44;5053812;28;20036;-58
2022/03/04 07:32:50;;;;;;;33.75;17.20;;;;;;;0.50;74.83;102192.00;5067043;28;20039;-56
2022/03/04 07:35:16;;;;;;;33.63;17.15;;;;;;;0.60;74.73;102200.91;5059485;28;20029;-64
2022/03/04 07:37:42;;;;;;;35.30;17.48;;;;;;;0.66;74.91;102199.38;5046965;28;20020;-60
2022/03/04 07:40:10;;;;;;;30.52;16.15;;;;;;;0.76;74.36;102198.78;5045198;28;20573;-58
2022/03/04 07:42:35;;;;;;;28.60;16.15;;;;;;;0.84;73.96;102199.03;5046542;28;20025;-56
2022/03/04 07:45:01;;;;;;;31.10;16.83;;;;;;;0.89;73.76;102202.59;5047098;28;20467;-59
2022/03/04 07:47:26;;;;;;;34.05;15.90;;;;;;;0.98;73.58;102205.47;5067299;28;20667;-54
2022/03/04 07:49:52;;;;;;;34.55;18.08;;;;;;;1.06;73.13;102204.81;5059103;28;20471;-61
2022/03/04 07:52:17;;;;;;;29.92;15.93;;;;;;;1.14;72.58;102200.69;5053834;28;20039;-56
2022/03/04 07:54:43;;;;;;;36.17;18.15;;;;;;;1.19;72.38;102201.72;5054776;28;20486;-50
2022/03/04 07:57:09;;;;;;;33.72;16.25;;;;;;;1.33;71.95;102202.09;5055982;28;20035;-57
2022/03/04 07:59:34;;;;;;;28.67;15.45;;;;;;;1.45;71.56;102205.84;5055223;28;20029;-54
2022/03/04 08:02:00;;;;;;;29.35;15.63;;;;;;;1.54;71.17;102205.19;5054897;28;20032;-58
2022/03/04 08:04:25;;;;;;;33.65;16.15;;;;;;;1.59;71.08;102213.97;5045864;28;20052;-56
2022/03/04 08:06:50;;;;;;;30.83;15.65;;;;;;;1.66;70.53;102215.03;5044886;28;20025;-55
2022/03/04 08:09:15;;;;;;;28.48;16.02;;;;;;;1.69;70.46;102220.31;5046683;28;20423;-55
2022/03/04 08:11:41;;;;;;;28.23;15.73;;;;;;;1.79;70.23;102231.81;5045128;28;20045;-58
2022/03/04 08:14:06;;;;;;;33.03;17.75;;;;;;;1.75;70.14;102223.91;5066983;28;20344;-62
2022/03/04 08:16:33;;;;;;;30.77;17.27;;;;;;;1.81;70.16;102230.13;5065859;28;20029;-56
2022/03/04 08:19:03;;;;;;;31.83;16.50;;;;;;;1.89;69.45;102234.69;5065876;28;20024;-58
2022/03/04 08:21:28;;;;;;;29.25;15.80;;;;;;;2.00;69.12;102227.16;5065224;28;20462;-58
2022/03/04 08:23:54;;;;;;;30.42;16.55;;;;;;;2.07;68.70;102227.28;5065830;28;20031;-56
2022/03/04 08:26:20;;;;;;;32.45;16.08;;;;;;;2.13;68.78;102232.63;5064930;28;20089;-58
2022/03/04 08:28:45;;;;;;;30.25;15.68;;;;;;;2.21;68.45;102231.09;5051525;28;20068;-57
2022/03/04 08:31:11;;;;;;;25.80;14.95;;;;;;;2.30;67.56;102222.63;5046033;28;20029;-56
2022/03/04 08:33:41;;;;;;;26.98;14.35;;;;;;;2.39;67.42;102227.16;5057394;28;20100;-56
2022/03/04 08:36:06;;;;;;;29.60;16.55;;;;;;;2.43;67.08;102223.78;5052372;28;20060;-58
2022/03/04 08:38:32;;;;;;;31.98;16.33;;;;;;;2.54;67.13;102224.03;5028909;28;20227;-57
2022/03/04 08:40:57;;;;;;;30.50;16.17;;;;;;;2.57;66.68;102216.28;5025600;28;20116;-58
2022/03/04 08:43:22;;;;;;;31.83;16.00;;;;;;;2.51;67.04;102218.75;5024734;28;20028;-58
2022/03/04 08:45:48;;;;;;;27.25;16.38;;;;;;;2.54;66.95;102216.22;5026251;28;20808;-59
2022/03/04 08:48:13;;;;;;;30.33;16.17;;;;;;;2.60;66.53;102218.06;5030326;28;20024;-58
2022/03/04 08:50:39;;;;;;;28.20;15.90;;;;;;;2.70;66.47;102214.81;5046568;28;20037;-55
2022/03/04 08:53:04;;;;;;;30.45;17.58;;;;;;;2.78;66.15;102218.47;5029851;28;20082;-58
2022/03/04 08:55:30;;;;;;;28.00;15.55;;;;;;;2.78;66.06;102222.78;5026454;28;20039;-57
2022/03/04 08:57:56;;;;;;;32.65;17.50;;;;;;;2.87;66.14;102219.50;5023944;28;20100;-57
2022/03/04 09:00:21;;;;;;;30.40;17.10;;;;;;;2.97;65.84;102225.75;5020929;28;20037;-57
2022/03/04 09:02:47;;;;;;;26.88;14.43;;;;;;;3.06;66.01;102222.47;5010921;28;20105;-61
2022/03/04 09:05:12;;;;;;;31.58;17.02;;;;;;;3.21;65.14;102220.16;5006144;28;20071;-57
2022/03/04 09:07:37;;;;;;;51.50;17.35;;;;;;;3.38;65.16;102223.09;5030367;28;20123;-54
2022/03/04 09:10:06;;;;;;;30.58;17.05;;;;;;;3.54;64.55;102224.25;5024946;28;20214;-52
2022/03/04 09:12:32;;;;;;;30.92;16.02;;;;;;;3.72;64.27;102225.44;5032812;28;20048;-58
2022/03/04 09:14:57;;;;;;;25.65;15.23;;;;;;;3.73;63.30;102215.88;5045655;28;20411;-58
2022/03/04 09:17:23;;;;;;;27.58;16.58;;;;;;;3.76;63.43;102221.13;5044626;28;20028;-57
2022/03/04 09:19:48;;;;;;;27.73;15.95;;;;;;;3.81;63.33;102229.91;5045281;28;20074;-57
2022/03/04 09:22:14;;;;;;;24.83;14.43;;;;;;;3.93;63.23;102218.81;5044601;28;20025;-56
2022/03/04 09:24:39;;;;;;;31.92;15.25;;;;;;;4.01;63.57;102230.22;5031591;28;20554;-57
2022/03/04 09:27:06;;;;;;;25.77;15.65;;;;;;;4.16;61.87;102226.97;5024245;28;20032;-58
2022/03/04 09:29:32;;;;;;;29.50;16.13;;;;;;;4.33;62.48;102221.16;5032061;28;20474;-57
2022/03/04 09:31:58;;;;;;;27.77;15.40;;;;;;;4.41;61.40;102218.66;5035519;28;20033;-54
2022/03/04 09:34:23;;;;;;;24.65;15.45;;;;;;;4.39;61.64;102223.84;5024304;28;20060;-57
2022/03/04 09:36:49;;;;;;;27.52;15.90;;;;;;;4.41;61.61;102229.09;5025152;28;20036;-57
2022/03/04 09:39:14;;;;;;;26.30;14.98;;;;;;;4.49;61.51;102224.84;5022257;28;20041;-56
2022/03/04 09:41:40;;;;;;;26.58;14.93;;;;;;;4.54;61.51;102225.81;5025118;28;20100;-64
2022/03/04 09:44:06;;;;;;;25.52;15.05;;;;;;;4.59;61.80;102231.09;5028456;28;20556;-55
2022/03/04 09:46:31;;;;;;;30.33;15.50;;;;;;;4.62;61.36;102240.69;5045964;28;20100;-55
2022/03/04 09:48:57;;;;;;;31.95;15.23;;;;;;;4.68;61.21;102236.44;5040987;28;20132;-56
2022/03/04 09:51:22;;;;;;;28.05;15.57;;;;;;;4.82;60.89;102242.69;5032306;28;20024;-56
2022/03/04 09:53:50;;;;;;;26.83;15.02;;;;;;;4.91;61.09;102240.19;5022967;28;20075;-57
2022/03/04 09:56:15;;;;;;;27.13;15.02;;;;;;;5.03;60.42;102245.56;5023206;28;20482;-57
2022/03/04 09:58:41;;;;;;;29.20;15.35;;;;;;;5.05;60.39;102245.56;5024654;28;20048;-58
2022/03/04 10:01:11;;;;;;;28.45;15.63;;;;;;;5.00;59.61;102242.91;5037364;28;20040;-57
2022/03/04 10:03:39;;;;;;;26.88;15.07;;;;;;;5.16;59.90;102241.38;5045133;28;20112;-59
2022/03/04 10:06:05;;;;;;;26.98;14.43;;;;;;;5.24;59.11;102245.81;5039052;28;20028;-57
2022/03/04 10:08:36;;;;;;;25.48;16.15;;;;;;;5.26;59.26;102244.97;5034002;28;20048;-58
2022/03/04 10:11:02;;;;;;;30.73;16.27;;;;;;;5.36;59.58;102240.69;5030230;28;20495;-56
2022/03/04 10:13:46;;;;;;;28.42;14.60;;;;;;;5.50;58.83;102245.19;5033223;28;20074;-56
2022/03/04 10:16:31;;;;;;;34.42;16.55;;;;;;;5.44;58.80;102239.06;5028688;28;20031;-54
2022/03/04 10:19:16;;;;;;;29.10;15.40;;;;;;;5.57;58.30;102229.59;5033279;28;20082;-54
2022/03/04 10:21:59;;;;;;;23.80;13.88;;;;;;;5.70;58.78;102232.31;5024398;28;20459;-54
2022/03/04 10:24:35;;;;;;;29.52;15.57;;;;;;;5.89;58.80;102229.84;5033703;28;20482;-58
2022/03/04 10:27:07;;;;;;;26.02;14.98;;;;;;;5.97;58.21;102217.72;5038896;28;20111;-55
2022/03/04 10:29:42;;;;;;;28.48;14.70;;;;;;;6.08;58.89;102215.19;5045152;28;20100;-56
2022/03/04 10:32:28;;;;;;;24.98;14.80;;;;;;;6.20;58.00;102222.25;5028912;28;20151;-59
2022/03/04 10:35:08;;;;;;;29.80;16.20;;;;;;;6.30;58.15;102220.59;5023180;28;20064;-56
2022/03/04 10:37:52;;;;;;;33.05;16.13;;;;;;;6.37;56.89;102211.91;5024302;28;20875;-54
2022/03/04 10:40:21;;;;;;;25.45;15.65;;;;;;;6.44;56.52;102218.03;5021415;28;20275;-57
2022/03/04 10:42:49;;;;;;;28.38;16.05;;;;;;;6.64;56.04;102217.28;5033448;28;20717;-56
2022/03/04 10:45:35;;;;;;;25.40;15.18;;;;;;;6.72;56.23;102212.97;5021415;28;20065;-55
2022/03/04 10:48:10;;;;;;;24.30;13.93;;;;;;;6.93;55.37;102216.53;5039157;28;20108;-53
2022/03/04 10:50:41;;;;;;;28.73;16.05;;;;;;;6.93;57.53;102213.91;5044305;28;20056;-53
2022/03/04 10:53:16;;;;;;;20.48;13.82;;;;;;;7.02;56.67;102221.81;5018017;28;20037;-58
2022/03/04 10:55:44;;;;;;;27.92;15.63;;;;;;;7.14;56.12;102215.72;5030420;28;20041;-55
2022/03/04 10:58:27;;;;;;;25.70;16.27;;;;;;;7.15;55.02;102209.59;5033307;28;20522;-57
2022/03/04 11:01:06;;;;;;;26.25;15.70;;;;;;;7.33;55.23;102211.41;5022485;28;20033;-55
2022/03/04 11:03:33;;;;;;;34.53;16.23;;;;;;;7.40;53.96;102209.66;5029427;28;20378;-59
2022/03/04 11:06:00;;;;;;;26.13;16.27;;;;;;;7.40;54.01;102211.38;5034716;28;20043;-58
2022/03/04 11:08:26;;;;;;;25.73;15.73;;;;;;;7.46;54.49;102211.41;5032824;28;20112;-56
2022/03/04 11:10:52;;;;;;;29.73;15.68;;;;;;;7.75;53.77;102221.06;5032806;28;20508;-55